sensor_id;sensor_type;location;lat;lon;timestamp;pressure;altitude;pressure_sealevel;temperature
19040;BMP180;9652;49.014;12.052;2023-10-08T00:02:10;98451.00;;;18.70
19040;BMP180;9652;49.014;12.052;2023-10-08T00:04:40;98436.00;;;18.60
19040;BMP180;9652;49.014;12.052;2023-10-08T00:07:10;98443.00;;;18.70
19040;BMP180;9652;49.014;12.052;2023-10-08T00:09:37;98441.00;;;18.60
19040;BMP180;9652;49.014;12.052;2023-10-08T00:12:06;98440.00;;;18.60
19040;BMP180;9652;49.014;12.052;2023-10-08T00:14:34;98439.00;;;18.60
19040;BMP180;9652;49.014;12.052;2023-10-08T00:17:11;98435.00;;;18.60
19040;BMP180;9652;49.014;12.052;2023-10-08T00:19:39;98440.00;;;18.60
19040;BMP180;9652;49.014;12.052;2023-10-08T00:22:09;98431.00;;;18.60
19040;BMP180;9652;49.014;12.052;2023-10-08T00:24:36;98417.00;;;18.60
19040;BMP180;9652;49.014;12.052;2023-10-08T00:27:08;98404.00;;;18.50
19040;BMP180;9652;49.014;12.052;2023-10-08T00:29:36;98415.00;;;18.50
19040;BMP180;9652;49.014;12.052;2023-10-08T00:32:06;98387.00;;;18.50
19040;BMP180;9652;49.014;12.052;2023-10-08T00:34:39;98396.00;;;18.50
19040;BMP180;9652;49.014;12.052;2023-10-08T00:37:10;98418.00;;;18.50
19040;BMP180;9652;49.014;12.052;2023-10-08T00:39:40;98404.00;;;18.50
19040;BMP180;9652;49.014;12.052;2023-10-08T00:42:09;98406.00;;;18.50
19040;BMP180;9652;49.014;12.052;2023-10-08T00:44:38;98380.00;;;18.50
19040;BMP180;9652;49.014;12.052;2023-10-08T00:47:15;98398.00;;;18.50
19040;BMP180;9652;49.014;12.052;2023-10-08T00:49:46;98362.00;;;18.50
19040;BMP180;9652;49.014;12.052;2023-10-08T00:52:22;98398.00;;;18.50
19040;BMP180;9652;49.014;12.052;2023-10-08T00:55:04;98407.00;;;18.50
19040;BMP180;9652;49.014;12.052;2023-10-08T00:57:42;98398.00;;;18.50
19040;BMP180;9652;49.014;12.052;2023-10-08T01:00:14;98399.00;;;18.50
19040;BMP180;9652;49.014;12.052;2023-10-08T01:02:47;98402.00;;;18.50
19040;BMP180;9652;49.014;12.052;2023-10-08T01:05:26;98388.00;;;18.50
19040;BMP180;9652;49.014;12.052;2023-10-08T01:07:56;98337.00;;;18.50
19040;BMP180;9652;49.014;12.052;2023-10-08T01:10:24;98386.00;;;18.50
19040;BMP180;9652;49.014;12.052;2023-10-08T01:12:53;98401.00;;;18.50
19040;BMP180;9652;49.014;12.052;2023-10-08T01:15:31;98400.00;;;18.50
19040;BMP180;9652;49.014;12.052;2023-10-08T01:18:02;98408.00;;;18.50
19040;BMP180;9652;49.014;12.052;2023-10-08T01:20:31;98390.00;;;18.50
19040;BMP180;9652;49.014;12.052;2023-10-08T01:23:04;98421.00;;;18.50
19040;BMP180;9652;49.014;12.052;2023-10-08T01:25:36;98383.00;;;18.50
19040;BMP180;9652;49.014;12.052;2023-10-08T01:28:05;98412.00;;;18.50
19040;BMP180;9652;49.014;12.052;2023-10-08T01:30:41;98401.00;;;18.50
19040;BMP180;9652;49.014;12.052;2023-10-08T01:33:12;98422.00;;;18.50
19040;BMP180;9652;49.014;12.052;2023-10-08T01:35:43;98414.00;;;18.50
19040;BMP180;9652;49.014;12.052;2023-10-08T01:38:11;98408.00;;;18.40
19040;BMP180;9652;49.014;12.052;2023-10-08T01:40:41;98328.00;;;18.50
19040;BMP180;9652;49.014;12.052;2023-10-08T01:43:08;98412.00;;;18.40
19040;BMP180;9652;49.014;12.052;2023-10-08T01:45:37;98420.00;;;18.50
19040;BMP180;9652;49.014;12.052;2023-10-08T01:48:07;98343.00;;;18.40
19040;BMP180;9652;49.014;12.052;2023-10-08T01:50:37;98411.00;;;18.40
19040;BMP180;9652;49.014;12.052;2023-10-08T01:53:04;98407.00;;;18.40
19040;BMP180;9652;49.014;12.052;2023-10-08T01:55:37;98408.00;;;18.40
19040;BMP180;9652;49.014;12.052;2023-10-08T01:58:16;98396.00;;;18.40
19040;BMP180;9652;49.014;12.052;2023-10-08T02:00:45;98383.00;;;18.30
19040;BMP180;9652;49.014;12.052;2023-10-08T02:03:13;98403.00;;;18.30
19040;BMP180;9652;49.014;12.052;2023-10-08T02:05:42;98386.00;;;18.30
19040;BMP180;9652;49.014;12.052;2023-10-08T02:08:10;98400.00;;;18.30
19040;BMP180;9652;49.014;12.052;2023-10-08T02:10:42;98404.00;;;18.30
19040;BMP180;9652;49.014;12.052;2023-10-08T02:13:10;98408.00;;;18.30
19040;BMP180;9652;49.014;12.052;2023-10-08T02:15:44;98399.00;;;18.30
19040;BMP180;9652;49.014;12.052;2023-10-08T02:18:11;98406.00;;;18.30
19040;BMP180;9652;49.014;12.052;2023-10-08T02:20:39;98378.00;;;18.20
19040;BMP180;9652;49.014;12.052;2023-10-08T02:23:07;98399.00;;;18.20
19040;BMP180;9652;49.014;12.052;2023-10-08T02:25:36;98396.00;;;18.20
19040;BMP180;9652;49.014;12.052;2023-10-08T02:28:06;98399.00;;;18.20
19040;BMP180;9652;49.014;12.052;2023-10-08T02:30:34;98394.00;;;18.10
19040;BMP180;9652;49.014;12.052;2023-10-08T02:33:03;98394.00;;;18.10
19040;BMP180;9652;49.014;12.052;2023-10-08T02:35:40;98392.00;;;18.10
19040;BMP180;9652;49.014;12.052;2023-10-08T02:38:10;98401.00;;;18.10
19040;BMP180;9652;49.014;12.052;2023-10-08T02:40:39;98399.00;;;18.10
19040;BMP180;9652;49.014;12.052;2023-10-08T02:43:12;98407.00;;;18.00
19040;BMP180;9652;49.014;12.052;2023-10-08T02:45:42;98404.00;;;18.00
19040;BMP180;9652;49.014;12.052;2023-10-08T02:48:13;98410.00;;;18.00
19040;BMP180;9652;49.014;12.052;2023-10-08T02:50:42;98417.00;;;18.00
19040;BMP180;9652;49.014;12.052;2023-10-08T02:53:11;98418.00;;;18.00
19040;BMP180;9652;49.014;12.052;2023-10-08T02:55:39;98415.00;;;17.90
19040;BMP180;9652;49.014;12.052;2023-10-08T02:58:11;98415.00;;;17.90
19040;BMP180;9652;49.014;12.052;2023-10-08T03:00:41;98410.00;;;17.90
19040;BMP180;9652;49.014;12.052;2023-10-08T03:03:08;98417.00;;;17.90
19040;BMP180;9652;49.014;12.052;2023-10-08T03:05:44;98413.00;;;17.90
19040;BMP180;9652;49.014;12.052;2023-10-08T03:08:13;98313.00;;;17.90
19040;BMP180;9652;49.014;12.052;2023-10-08T03:10:46;98407.00;;;17.90
19040;BMP180;9652;49.014;12.052;2023-10-08T03:13:16;98417.00;;;17.90
19040;BMP180;9652;49.014;12.052;2023-10-08T03:15:45;98403.00;;;17.80
19040;BMP180;9652;49.014;12.052;2023-10-08T03:18:34;98409.00;;;17.80
19040;BMP180;9652;49.014;12.052;2023-10-08T03:21:03;98394.00;;;17.80
19040;BMP180;9652;49.014;12.052;2023-10-08T03:23:31;98414.00;;;17.80
19040;BMP180;9652;49.014;12.052;2023-10-08T03:26:02;98414.00;;;17.80
19040;BMP180;9652;49.014;12.052;2023-10-08T03:28:39;98413.00;;;17.70
19040;BMP180;9652;49.014;12.052;2023-10-08T03:31:07;98416.00;;;17.70
19040;BMP180;9652;49.014;12.052;2023-10-08T03:33:43;98421.00;;;17.70
19040;BMP180;9652;49.014;12.052;2023-10-08T03:36:15;98405.00;;;17.70
19040;BMP180;9652;49.014;12.052;2023-10-08T03:38:48;98425.00;;;17.70
19040;BMP180;9652;49.014;12.052;2023-10-08T03:41:21;98430.00;;;17.60
19040;BMP180;9652;49.014;12.052;2023-10-08T03:43:54;98409.00;;;17.60
19040;BMP180;9652;49.014;12.052;2023-10-08T03:46:29;98435.00;;;17.60
19040;BMP180;9652;49.014;12.052;2023-10-08T03:48:56;98416.00;;;17.60
19040;BMP180;9652;49.014;12.052;2023-10-08T03:51:30;98437.00;;;17.60
19040;BMP180;9652;49.014;12.052;2023-10-08T03:54:06;98440.00;;;17.60
19040;BMP180;9652;49.014;12.052;2023-10-08T03:56:47;98432.00;;;17.50
19040;BMP180;9652;49.014;12.052;2023-10-08T03:59:15;98430.00;;;17.50
19040;BMP180;9652;49.014;12.052;2023-10-08T04:01:56;98419.00;;;17.50
19040;BMP180;9652;49.014;12.052;2023-10-08T04:04:26;98399.00;;;17.50
19040;BMP180;9652;49.014;12.052;2023-10-08T04:07:09;98407.00;;;17.50
19040;BMP180;9652;49.014;12.052;2023-10-08T04:09:49;98398.00;;;17.40
19040;BMP180;9652;49.014;12.052;2023-10-08T04:12:25;98393.00;;;17.40
19040;BMP180;9652;49.014;12.052;2023-10-08T04:14:54;98416.00;;;17.40
19040;BMP180;9652;49.014;12.052;2023-10-08T04:17:22;98433.00;;;17.40
19040;BMP180;9652;49.014;12.052;2023-10-08T04:19:49;98445.00;;;17.30
19040;BMP180;9652;49.014;12.052;2023-10-08T04:22:17;98451.00;;;17.30
19040;BMP180;9652;49.014;12.052;2023-10-08T04:24:44;98454.00;;;17.30
19040;BMP180;9652;49.014;12.052;2023-10-08T04:27:13;98456.00;;;17.30
19040;BMP180;9652;49.014;12.052;2023-10-08T04:29:40;98454.00;;;17.30
19040;BMP180;9652;49.014;12.052;2023-10-08T04:32:09;98433.00;;;17.20
19040;BMP180;9652;49.014;12.052;2023-10-08T04:34:46;98438.00;;;17.20
19040;BMP180;9652;49.014;12.052;2023-10-08T04:37:15;98437.00;;;17.20
19040;BMP180;9652;49.014;12.052;2023-10-08T04:39:46;98441.00;;;17.10
19040;BMP180;9652;49.014;12.052;2023-10-08T04:42:20;98437.00;;;17.10
19040;BMP180;9652;49.014;12.052;2023-10-08T04:44:51;98444.00;;;17.10
19040;BMP180;9652;49.014;12.052;2023-10-08T04:47:22;98447.00;;;17.00
19040;BMP180;9652;49.014;12.052;2023-10-08T04:49:58;98447.00;;;17.00
19040;BMP180;9652;49.014;12.052;2023-10-08T04:52:25;98440.00;;;17.00
19040;BMP180;9652;49.014;12.052;2023-10-08T04:54:53;98452.00;;;17.00
19040;BMP180;9652;49.014;12.052;2023-10-08T04:57:22;98458.00;;;17.10
19040;BMP180;9652;49.014;12.052;2023-10-08T04:59:52;98449.00;;;17.10
19040;BMP180;9652;49.014;12.052;2023-10-08T05:02:24;98409.00;;;17.10
19040;BMP180;9652;49.014;12.052;2023-10-08T05:05:00;98443.00;;;17.10
19040;BMP180;9652;49.014;12.052;2023-10-08T05:07:45;98455.00;;;17.10
19040;BMP180;9652;49.014;12.052;2023-10-08T05:10:29;98462.00;;;17.10
19040;BMP180;9652;49.014;12.052;2023-10-08T05:13:10;98470.00;;;17.10
19040;BMP180;9652;49.014;12.052;2023-10-08T05:15:56;98458.00;;;17.10
19040;BMP180;9652;49.014;12.052;2023-10-08T05:18:39;98447.00;;;17.10
19040;BMP180;9652;49.014;12.052;2023-10-08T05:21:33;98445.00;;;17.10
19040;BMP180;9652;49.014;12.052;2023-10-08T05:24:18;98445.00;;;17.10
19040;BMP180;9652;49.014;12.052;2023-10-08T05:26:53;98449.00;;;17.20
19040;BMP180;9652;49.014;12.052;2023-10-08T05:29:41;98452.00;;;17.20
19040;BMP180;9652;49.014;12.052;2023-10-08T05:32:36;98448.00;;;17.20
19040;BMP180;9652;49.014;12.052;2023-10-08T05:35:33;98464.00;;;17.20
19040;BMP180;9652;49.014;12.052;2023-10-08T05:38:18;98439.00;;;17.20
19040;BMP180;9652;49.014;12.052;2023-10-08T05:41:04;98446.00;;;17.20
19040;BMP180;9652;49.014;12.052;2023-10-08T05:43:38;98420.00;;;17.20
19040;BMP180;9652;49.014;12.052;2023-10-08T05:46:21;98453.00;;;17.20
19040;BMP180;9652;49.014;12.052;2023-10-08T05:49:07;98448.00;;;17.20
19040;BMP180;9652;49.014;12.052;2023-10-08T05:52:05;98415.00;;;17.30
19040;BMP180;9652;49.014;12.052;2023-10-08T05:54:51;98441.00;;;17.30
19040;BMP180;9652;49.014;12.052;2023-10-08T05:57:32;98439.00;;;17.40
19040;BMP180;9652;49.014;12.052;2023-10-08T06:00:06;98427.00;;;17.40
19040;BMP180;9652;49.014;12.052;2023-10-08T06:02:51;98426.00;;;17.40
19040;BMP180;9652;49.014;12.052;2023-10-08T06:05:36;98427.00;;;17.50
19040;BMP180;9652;49.014;12.052;2023-10-08T06:08:31;98418.00;;;17.50
19040;BMP180;9652;49.014;12.052;2023-10-08T06:11:16;98439.00;;;17.60
19040;BMP180;9652;49.014;12.052;2023-10-08T06:13:54;98429.00;;;17.70
19040;BMP180;9652;49.014;12.052;2023-10-08T06:16:26;98423.00;;;17.70
19040;BMP180;9652;49.014;12.052;2023-10-08T06:19:08;98441.00;;;17.80
19040;BMP180;9652;49.014;12.052;2023-10-08T06:21:35;98443.00;;;17.90
19040;BMP180;9652;49.014;12.052;2023-10-08T06:24:06;98432.00;;;17.90
19040;BMP180;9652;49.014;12.052;2023-10-08T06:26:37;98427.00;;;18.00
19040;BMP180;9652;49.014;12.052;2023-10-08T06:29:10;98438.00;;;18.10
19040;BMP180;9652;49.014;12.052;2023-10-08T06:31:52;98428.00;;;18.20
19040;BMP180;9652;49.014;12.052;2023-10-08T06:34:22;98434.00;;;18.20
19040;BMP180;9652;49.014;12.052;2023-10-08T06:36:58;98422.00;;;18.30
19040;BMP180;9652;49.014;12.052;2023-10-08T06:39:28;98431.00;;;18.40
19040;BMP180;9652;49.014;12.052;2023-10-08T06:42:13;98424.00;;;18.50
19040;BMP180;9652;49.014;12.052;2023-10-08T06:44:41;98427.00;;;18.60
19040;BMP180;9652;49.014;12.052;2023-10-08T06:47:10;98430.00;;;18.60
19040;BMP180;9652;49.014;12.052;2023-10-08T06:49:37;98445.00;;;18.70
19040;BMP180;9652;49.014;12.052;2023-10-08T06:52:05;98447.00;;;18.80
19040;BMP180;9652;49.014;12.052;2023-10-08T06:54:38;98459.00;;;18.80
19040;BMP180;9652;49.014;12.052;2023-10-08T06:57:05;98470.00;;;18.90
19040;BMP180;9652;49.014;12.052;2023-10-08T06:59:39;98455.00;;;18.90
19040;BMP180;9652;49.014;12.052;2023-10-08T07:02:08;98475.00;;;19.00
19040;BMP180;9652;49.014;12.052;2023-10-08T07:04:35;98451.00;;;19.00
19040;BMP180;9652;49.014;12.052;2023-10-08T07:07:02;98470.00;;;19.10
19040;BMP180;9652;49.014;12.052;2023-10-08T07:09:35;98478.00;;;19.10
19040;BMP180;9652;49.014;12.052;2023-10-08T07:12:04;98460.00;;;19.10
19040;BMP180;9652;49.014;12.052;2023-10-08T07:14:32;98381.00;;;19.10
19040;BMP180;9652;49.014;12.052;2023-10-08T07:17:00;98495.00;;;19.10
19040;BMP180;9652;49.014;12.052;2023-10-08T07:19:34;98494.00;;;19.20
19040;BMP180;9652;49.014;12.052;2023-10-08T07:22:04;98502.00;;;19.20
19040;BMP180;9652;49.014;12.052;2023-10-08T07:24:43;98486.00;;;19.20
19040;BMP180;9652;49.014;12.052;2023-10-08T07:27:12;98484.00;;;19.30
19040;BMP180;9652;49.014;12.052;2023-10-08T07:29:39;98447.00;;;19.30
19040;BMP180;9652;49.014;12.052;2023-10-08T07:32:06;98487.00;;;19.30
19040;BMP180;9652;49.014;12.052;2023-10-08T07:34:37;98483.00;;;19.40
19040;BMP180;9652;49.014;12.052;2023-10-08T07:37:04;98477.00;;;19.40
19040;BMP180;9652;49.014;12.052;2023-10-08T07:39:32;98496.00;;;19.40
19040;BMP180;9652;49.014;12.052;2023-10-08T07:42:09;98503.00;;;19.50
19040;BMP180;9652;49.014;12.052;2023-10-08T07:44:38;98508.00;;;19.50
19040;BMP180;9652;49.014;12.052;2023-10-08T07:47:06;98524.00;;;19.50
19040;BMP180;9652;49.014;12.052;2023-10-08T07:49:36;98537.00;;;19.50
19040;BMP180;9652;49.014;12.052;2023-10-08T07:52:03;98538.00;;;19.60
19040;BMP180;9652;49.014;12.052;2023-10-08T07:54:31;98525.00;;;19.60
19040;BMP180;9652;49.014;12.052;2023-10-08T07:57:01;98516.00;;;19.70
19040;BMP180;9652;49.014;12.052;2023-10-08T07:59:35;98487.00;;;19.70
19040;BMP180;9652;49.014;12.052;2023-10-08T08:02:06;98495.00;;;19.70
19040;BMP180;9652;49.014;12.052;2023-10-08T08:04:36;98542.00;;;19.80
19040;BMP180;9652;49.014;12.052;2023-10-08T08:07:03;98493.00;;;19.80
19040;BMP180;9652;49.014;12.052;2023-10-08T08:09:31;98524.00;;;19.80
19040;BMP180;9652;49.014;12.052;2023-10-08T08:12:05;98526.00;;;19.90
19040;BMP180;9652;49.014;12.052;2023-10-08T08:14:37;98515.00;;;19.90
19040;BMP180;9652;49.014;12.052;2023-10-08T08:17:09;98493.00;;;19.90
19040;BMP180;9652;49.014;12.052;2023-10-08T08:19:48;98526.00;;;20.00
19040;BMP180;9652;49.014;12.052;2023-10-08T08:22:17;98539.00;;;20.00
19040;BMP180;9652;49.014;12.052;2023-10-08T08:24:47;98565.00;;;20.10
19040;BMP180;9652;49.014;12.052;2023-10-08T08:27:18;98569.00;;;20.10
19040;BMP180;9652;49.014;12.052;2023-10-08T08:29:57;98569.00;;;20.20
19040;BMP180;9652;49.014;12.052;2023-10-08T08:32:37;98580.00;;;20.20
19040;BMP180;9652;49.014;12.052;2023-10-08T08:35:07;98577.00;;;20.30
19040;BMP180;9652;49.014;12.052;2023-10-08T08:37:35;98571.00;;;20.30
19040;BMP180;9652;49.014;12.052;2023-10-08T08:40:05;98567.00;;;20.40
19040;BMP180;9652;49.014;12.052;2023-10-08T08:42:35;98575.00;;;20.50
19040;BMP180;9652;49.014;12.052;2023-10-08T08:45:06;98586.00;;;20.50
19040;BMP180;9652;49.014;12.052;2023-10-08T08:47:40;98552.00;;;20.60
19040;BMP180;9652;49.014;12.052;2023-10-08T08:50:08;98550.00;;;20.70
19040;BMP180;9652;49.014;12.052;2023-10-08T08:52:36;98597.00;;;20.80
19040;BMP180;9652;49.014;12.052;2023-10-08T08:55:05;98597.00;;;20.90
19040;BMP180;9652;49.014;12.052;2023-10-08T08:57:41;98601.00;;;20.90
19040;BMP180;9652;49.014;12.052;2023-10-08T09:00:12;98596.00;;;21.00
19040;BMP180;9652;49.014;12.052;2023-10-08T09:02:41;98603.00;;;21.10
19040;BMP180;9652;49.014;12.052;2023-10-08T09:05:11;98619.00;;;21.20
19040;BMP180;9652;49.014;12.052;2023-10-08T09:07:57;98599.00;;;21.20
19040;BMP180;9652;49.014;12.052;2023-10-08T09:10:25;98611.00;;;21.20
19040;BMP180;9652;49.014;12.052;2023-10-08T09:12:55;98590.00;;;21.40
19040;BMP180;9652;49.014;12.052;2023-10-08T09:15:24;98589.00;;;21.50
19040;BMP180;9652;49.014;12.052;2023-10-08T09:17:53;98556.00;;;21.50
19040;BMP180;9652;49.014;12.052;2023-10-08T09:20:21;98569.00;;;21.60
19040;BMP180;9652;49.014;12.052;2023-10-08T09:23:06;98582.00;;;21.60
19040;BMP180;9652;49.014;12.052;2023-10-08T09:25:38;98564.00;;;21.70
19040;BMP180;9652;49.014;12.052;2023-10-08T09:28:06;98551.00;;;21.80
19040;BMP180;9652;49.014;12.052;2023-10-08T09:30:35;98524.00;;;21.80
19040;BMP180;9652;49.014;12.052;2023-10-08T09:33:07;98477.00;;;21.90
19040;BMP180;9652;49.014;12.052;2023-10-08T09:35:35;98549.00;;;22.00
19040;BMP180;9652;49.014;12.052;2023-10-08T09:38:05;98480.00;;;22.10
19040;BMP180;9652;49.014;12.052;2023-10-08T09:40:36;98496.00;;;22.20
19040;BMP180;9652;49.014;12.052;2023-10-08T09:43:04;98534.00;;;22.10
19040;BMP180;9652;49.014;12.052;2023-10-08T09:45:34;98534.00;;;22.20
19040;BMP180;9652;49.014;12.052;2023-10-08T09:48:10;98535.00;;;22.20
19040;BMP180;9652;49.014;12.052;2023-10-08T09:50:41;98514.00;;;22.10
19040;BMP180;9652;49.014;12.052;2023-10-08T09:53:10;98510.00;;;22.20
19040;BMP180;9652;49.014;12.052;2023-10-08T09:55:49;98522.00;;;22.10
19040;BMP180;9652;49.014;12.052;2023-10-08T09:58:18;98539.00;;;22.20
19040;BMP180;9652;49.014;12.052;2023-10-08T10:00:46;98550.00;;;22.20
19040;BMP180;9652;49.014;12.052;2023-10-08T10:03:16;98540.00;;;22.20
19040;BMP180;9652;49.014;12.052;2023-10-08T10:05:48;98576.00;;;22.20
19040;BMP180;9652;49.014;12.052;2023-10-08T10:08:15;98579.00;;;22.20
19040;BMP180;9652;49.014;12.052;2023-10-08T10:10:43;98576.00;;;22.20
19040;BMP180;9652;49.014;12.052;2023-10-08T10:13:16;98597.00;;;22.30
19040;BMP180;9652;49.014;12.052;2023-10-08T10:15:43;98615.00;;;22.20
19040;BMP180;9652;49.014;12.052;2023-10-08T10:18:15;98620.00;;;22.30
19040;BMP180;9652;49.014;12.052;2023-10-08T10:20:46;98622.00;;;22.30
19040;BMP180;9652;49.014;12.052;2023-10-08T10:23:38;98609.00;;;22.30
19040;BMP180;9652;49.014;12.052;2023-10-08T10:26:23;98625.00;;;22.20
19040;BMP180;9652;49.014;12.052;2023-10-08T10:29:21;98614.00;;;22.20
19040;BMP180;9652;49.014;12.052;2023-10-08T10:31:50;98617.00;;;22.20
19040;BMP180;9652;49.014;12.052;2023-10-08T10:34:23;98629.00;;;22.30
19040;BMP180;9652;49.014;12.052;2023-10-08T10:36:55;98619.00;;;22.30
19040;BMP180;9652;49.014;12.052;2023-10-08T10:39:25;98614.00;;;22.40
19040;BMP180;9652;49.014;12.052;2023-10-08T10:41:56;98515.00;;;22.40
19040;BMP180;9652;49.014;12.052;2023-10-08T10:44:27;98605.00;;;22.50
19040;BMP180;9652;49.014;12.052;2023-10-08T10:46:56;98649.00;;;22.70
19040;BMP180;9652;49.014;12.052;2023-10-08T10:49:39;98650.00;;;22.70
19040;BMP180;9652;49.014;12.052;2023-10-08T10:52:14;98645.00;;;22.80
19040;BMP180;9652;49.014;12.052;2023-10-08T10:54:52;98650.00;;;22.90
19040;BMP180;9652;49.014;12.052;2023-10-08T10:57:25;98670.00;;;22.90
19040;BMP180;9652;49.014;12.052;2023-10-08T11:00:03;98644.00;;;22.90
19040;BMP180;9652;49.014;12.052;2023-10-08T11:02:51;98607.00;;;23.00
19040;BMP180;9652;49.014;12.052;2023-10-08T11:05:24;98627.00;;;23.00
19040;BMP180;9652;49.014;12.052;2023-10-08T11:07:55;98627.00;;;23.10
19040;BMP180;9652;49.014;12.052;2023-10-08T11:10:26;98640.00;;;23.10
19040;BMP180;9652;49.014;12.052;2023-10-08T11:12:56;98624.00;;;23.10
19040;BMP180;9652;49.014;12.052;2023-10-08T11:15:27;98629.00;;;23.10
19040;BMP180;9652;49.014;12.052;2023-10-08T11:18:07;98584.00;;;23.10
19040;BMP180;9652;49.014;12.052;2023-10-08T11:20:37;98614.00;;;23.20
19040;BMP180;9652;49.014;12.052;2023-10-08T11:23:06;98600.00;;;23.20
19040;BMP180;9652;49.014;12.052;2023-10-08T11:25:53;98609.00;;;23.30
19040;BMP180;9652;49.014;12.052;2023-10-08T11:28:20;98616.00;;;23.40
19040;BMP180;9652;49.014;12.052;2023-10-08T11:30:50;98610.00;;;23.40
19040;BMP180;9652;49.014;12.052;2023-10-08T11:33:19;98569.00;;;23.50
19040;BMP180;9652;49.014;12.052;2023-10-08T11:36:02;98602.00;;;23.50
19040;BMP180;9652;49.014;12.052;2023-10-08T11:38:39;98606.00;;;23.50
19040;BMP180;9652;49.014;12.052;2023-10-08T11:41:11;98598.00;;;23.50
19040;BMP180;9652;49.014;12.052;2023-10-08T11:43:50;98613.00;;;23.50
19040;BMP180;9652;49.014;12.052;2023-10-08T11:46:22;98622.00;;;23.50
19040;BMP180;9652;49.014;12.052;2023-10-08T11:48:51;98619.00;;;23.60
19040;BMP180;9652;49.014;12.052;2023-10-08T11:51:20;98608.00;;;23.70
19040;BMP180;9652;49.014;12.052;2023-10-08T11:53:50;98614.00;;;23.80
19040;BMP180;9652;49.014;12.052;2023-10-08T11:56:19;98598.00;;;23.80
19040;BMP180;9652;49.014;12.052;2023-10-08T11:58:49;98613.00;;;23.90
19040;BMP180;9652;49.014;12.052;2023-10-08T12:01:17;98613.00;;;23.90
19040;BMP180;9652;49.014;12.052;2023-10-08T12:03:44;98569.00;;;23.90
19040;BMP180;9652;49.014;12.052;2023-10-08T12:06:12;98595.00;;;24.00
19040;BMP180;9652;49.014;12.052;2023-10-08T12:08:46;98588.00;;;24.00
19040;BMP180;9652;49.014;12.052;2023-10-08T12:11:14;98570.00;;;24.00
19040;BMP180;9652;49.014;12.052;2023-10-08T12:13:42;98563.00;;;24.00
19040;BMP180;9652;49.014;12.052;2023-10-08T12:16:13;98576.00;;;24.00
19040;BMP180;9652;49.014;12.052;2023-10-08T12:18:48;98614.00;;;24.00
19040;BMP180;9652;49.014;12.052;2023-10-08T12:21:20;98574.00;;;23.90
19040;BMP180;9652;49.014;12.052;2023-10-08T12:23:49;98628.00;;;23.90
19040;BMP180;9652;49.014;12.052;2023-10-08T12:26:17;98617.00;;;23.90
19040;BMP180;9652;49.014;12.052;2023-10-08T12:28:45;98612.00;;;23.80
19040;BMP180;9652;49.014;12.052;2023-10-08T12:31:14;98649.00;;;23.80
19040;BMP180;9652;49.014;12.052;2023-10-08T12:33:43;98604.00;;;23.90
19040;BMP180;9652;49.014;12.052;2023-10-08T12:36:11;98605.00;;;23.90
19040;BMP180;9652;49.014;12.052;2023-10-08T12:38:40;98639.00;;;24.00
19040;BMP180;9652;49.014;12.052;2023-10-08T12:41:09;98633.00;;;24.00
19040;BMP180;9652;49.014;12.052;2023-10-08T12:43:41;98652.00;;;23.90
19040;BMP180;9652;49.014;12.052;2023-10-08T12:46:12;98633.00;;;24.00
19040;BMP180;9652;49.014;12.052;2023-10-08T12:48:45;98613.00;;;23.90
19040;BMP180;9652;49.014;12.052;2023-10-08T12:51:16;98593.00;;;23.90
19040;BMP180;9652;49.014;12.052;2023-10-08T12:53:44;98633.00;;;23.80
19040;BMP180;9652;49.014;12.052;2023-10-08T12:56:26;98605.00;;;23.70
19040;BMP180;9652;49.014;12.052;2023-10-08T12:59:02;98599.00;;;23.70
19040;BMP180;9652;49.014;12.052;2023-10-08T13:01:32;98596.00;;;23.60
19040;BMP180;9652;49.014;12.052;2023-10-08T13:04:02;98605.00;;;23.60
19040;BMP180;9652;49.014;12.052;2023-10-08T13:06:34;98596.00;;;23.40
19040;BMP180;9652;49.014;12.052;2023-10-08T13:09:04;98593.00;;;23.50
19040;BMP180;9652;49.014;12.052;2023-10-08T13:11:40;98602.00;;;23.40
19040;BMP180;9652;49.014;12.052;2023-10-08T13:14:08;98605.00;;;23.40
19040;BMP180;9652;49.014;12.052;2023-10-08T13:16:37;98608.00;;;23.40
19040;BMP180;9652;49.014;12.052;2023-10-08T13:19:04;98615.00;;;23.40
19040;BMP180;9652;49.014;12.052;2023-10-08T13:21:34;98631.00;;;23.40
19040;BMP180;9652;49.014;12.052;2023-10-08T13:24:03;98624.00;;;23.40
19040;BMP180;9652;49.014;12.052;2023-10-08T13:26:35;98617.00;;;23.40
19040;BMP180;9652;49.014;12.052;2023-10-08T13:29:05;98620.00;;;23.40
19040;BMP180;9652;49.014;12.052;2023-10-08T13:31:34;98588.00;;;23.40
19040;BMP180;9652;49.014;12.052;2023-10-08T13:34:02;98613.00;;;23.50
19040;BMP180;9652;49.014;12.052;2023-10-08T13:36:34;98616.00;;;23.50
19040;BMP180;9652;49.014;12.052;2023-10-08T13:39:04;98595.00;;;23.40
19040;BMP180;9652;49.014;12.052;2023-10-08T13:41:35;98609.00;;;23.50
19040;BMP180;9652;49.014;12.052;2023-10-08T13:44:06;98607.00;;;23.40
19040;BMP180;9652;49.014;12.052;2023-10-08T13:46:33;98618.00;;;23.50
19040;BMP180;9652;49.014;12.052;2023-10-08T13:49:02;98617.00;;;23.40
19040;BMP180;9652;49.014;12.052;2023-10-08T13:51:31;98603.00;;;23.40
19040;BMP180;9652;49.014;12.052;2023-10-08T13:54:00;98618.00;;;23.40
19040;BMP180;9652;49.014;12.052;2023-10-08T13:56:33;98557.00;;;23.40
19040;BMP180;9652;49.014;12.052;2023-10-08T13:59:05;98586.00;;;23.50
19040;BMP180;9652;49.014;12.052;2023-10-08T14:01:40;98612.00;;;23.50
19040;BMP180;9652;49.014;12.052;2023-10-08T14:04:09;98620.00;;;23.60
19040;BMP180;9652;49.014;12.052;2023-10-08T14:06:38;98624.00;;;23.70
19040;BMP180;9652;49.014;12.052;2023-10-08T14:09:07;98631.00;;;23.80
19040;BMP180;9652;49.014;12.052;2023-10-08T14:11:38;98585.00;;;23.80
19040;BMP180;9652;49.014;12.052;2023-10-08T14:14:07;98630.00;;;23.90
19040;BMP180;9652;49.014;12.052;2023-10-08T14:16:39;98599.00;;;23.90
19040;BMP180;9652;49.014;12.052;2023-10-08T14:19:09;98623.00;;;23.90
19040;BMP180;9652;49.014;12.052;2023-10-08T14:21:38;98546.00;;;23.80
19040;BMP180;9652;49.014;12.052;2023-10-08T14:24:15;98623.00;;;23.70
19040;BMP180;9652;49.014;12.052;2023-10-08T14:26:43;98579.00;;;23.60
19040;BMP180;9652;49.014;12.052;2023-10-08T14:29:14;98624.00;;;23.50
19040;BMP180;9652;49.014;12.052;2023-10-08T14:31:43;98624.00;;;23.40
19040;BMP180;9652;49.014;12.052;2023-10-08T14:34:14;98616.00;;;23.40
19040;BMP180;9652;49.014;12.052;2023-10-08T14:37:07;98545.00;;;23.20
19040;BMP180;9652;49.014;12.052;2023-10-08T14:39:52;98594.00;;;23.10